createdAt,value
2017-03-08T00:00:43.963Z,0
2017-03-08T00:01:54.654Z,0
2017-03-08T00:03:05.360Z,0
2017-03-08T00:04:16.064Z,0
2017-03-08T00:05:26.767Z,0
2017-03-08T00:06:37.090Z,0
2017-03-08T00:07:47.833Z,0
2017-03-08T00:08:58.140Z,0
2017-03-08T00:10:08.846Z,0
2017-03-08T00:11:19.562Z,0
2017-03-08T00:12:30.283Z,0
2017-03-08T00:13:40.998Z,0
2017-03-08T00:14:51.293Z,0
2017-03-08T00:16:02.018Z,0
2017-03-08T00:17:12.714Z,0
2017-03-08T00:18:23.401Z,0
2017-03-08T00:19:34.121Z,0
2017-03-08T00:20:44.408Z,0
2017-03-08T00:21:55.119Z,0
2017-03-08T00:23:05.821Z,0
2017-03-08T00:24:16.530Z,0
2017-03-08T00:25:26.827Z,0
2017-03-08T00:26:37.526Z,0
2017-03-08T00:27:48.246Z,0
2017-03-08T00:28:58.544Z,0
2017-03-08T00:30:09.247Z,0
2017-03-08T00:31:19.956Z,0
2017-03-08T00:32:30.659Z,0
2017-03-08T00:33:41.373Z,0
2017-03-08T00:34:52.062Z,0
2017-03-08T00:36:02.753Z,0
2017-03-08T00:37:13.445Z,0
2017-03-08T00:38:24.139Z,0
2017-03-08T00:39:34.887Z,0
2017-03-08T00:40:45.574Z,0
2017-03-08T00:41:56.269Z,0
2017-03-08T00:43:06.970Z,0
2017-03-08T00:44:17.671Z,0
2017-03-08T00:45:28.385Z,0
2017-03-08T00:46:39.095Z,0
2017-03-08T00:47:49.800Z,0
2017-03-08T00:49:00.495Z,0
2017-03-08T00:50:11.217Z,0
2017-03-08T00:51:21.900Z,0
2017-03-08T00:52:32.229Z,0
2017-03-08T00:53:42.918Z,0
2017-03-08T00:54:53.625Z,0
2017-03-08T00:56:04.336Z,0
2017-03-08T00:57:15.036Z,0
2017-03-08T00:58:25.365Z,0
2017-03-08T00:59:36.067Z,0
2017-03-08T01:00:46.780Z,0
2017-03-08T01:01:57.482Z,0
2017-03-08T01:03:08.180Z,0
2017-03-08T01:04:18.894Z,0
2017-03-08T01:05:29.594Z,0
2017-03-08T01:06:40.299Z,0
2017-03-08T01:07:50.619Z,0
2017-03-08T01:09:01.349Z,0
2017-03-08T01:10:11.661Z,0
2017-03-08T01:11:22.358Z,0
2017-03-08T01:12:33.062Z,0
2017-03-08T01:13:43.785Z,0
2017-03-08T01:14:54.508Z,0
2017-03-08T01:16:05.227Z,0
2017-03-08T01:17:15.951Z,0
2017-03-08T01:18:26.650Z,0
2017-03-08T01:19:37.359Z,0
2017-03-08T01:20:47.656Z,0
2017-03-08T01:21:58.357Z,0
2017-03-08T01:23:09.093Z,0
2017-03-08T01:24:19.401Z,0
2017-03-08T01:25:30.104Z,0
2017-03-08T01:26:40.796Z,0
2017-03-08T01:27:51.490Z,0
2017-03-08T01:29:02.201Z,0
2017-03-08T01:30:12.502Z,0
2017-03-08T01:31:23.200Z,0
2017-03-08T01:32:33.918Z,0
2017-03-08T01:33:44.223Z,0
2017-03-08T01:34:54.917Z,0
2017-03-08T01:36:05.611Z,0
2017-03-08T01:37:15.542Z,0
2017-03-08T01:38:25.838Z,0
2017-03-08T01:39:36.552Z,0
2017-03-08T01:40:47.244Z,0
2017-03-08T01:41:57.568Z,0
2017-03-08T01:43:08.272Z,0
2017-03-08T01:44:18.979Z,0
2017-03-08T01:45:29.680Z,0
2017-03-08T01:46:40.382Z,0
2017-03-08T01:47:50.677Z,0
2017-03-08T01:49:01.400Z,0
2017-03-08T01:50:12.113Z,0
2017-03-08T01:51:22.410Z,0
2017-03-08T01:52:32.728Z,0
2017-03-08T01:53:43.441Z,0
2017-03-08T01:54:53.760Z,0
2017-03-08T01:56:04.476Z,0
2017-03-08T01:57:15.185Z,0
2017-03-08T01:58:25.483Z,0
2017-03-08T01:59:36.193Z,0
2017-03-08T02:00:46.500Z,0
2017-03-08T02:01:57.196Z,0
2017-03-08T02:03:07.897Z,0
2017-03-08T02:04:18.587Z,0
2017-03-08T02:05:28.894Z,0
2017-03-08T02:06:39.594Z,0
2017-03-08T02:07:50.298Z,0
2017-03-08T02:09:01.003Z,0
2017-03-08T02:10:11.349Z,0
2017-03-08T02:11:22.061Z,0
2017-03-08T02:12:32.757Z,0
2017-03-08T02:13:43.444Z,0
2017-03-08T02:14:54.148Z,0
2017-03-08T02:16:04.854Z,0
2017-03-08T02:17:15.545Z,0
2017-03-08T02:18:26.236Z,0
2017-03-08T02:19:36.953Z,0
2017-03-08T02:20:47.253Z,0
2017-03-08T02:21:57.955Z,0
2017-03-08T02:23:08.689Z,0
2017-03-08T02:24:18.625Z,0
2017-03-08T02:25:29.330Z,0
2017-03-08T02:26:40.033Z,0
2017-03-08T02:27:50.731Z,0
2017-03-08T02:29:01.432Z,0
2017-03-08T02:30:12.147Z,0
2017-03-08T02:31:22.860Z,0
2017-03-08T02:32:32.756Z,0
2017-03-08T02:33:43.473Z,0
2017-03-08T02:34:54.189Z,0
2017-03-08T02:36:04.894Z,0
2017-03-08T02:37:15.625Z,0
2017-03-08T02:38:25.538Z,0
2017-03-08T02:39:36.227Z,0
2017-03-08T02:40:46.917Z,0
2017-03-08T02:41:57.671Z,0
2017-03-08T02:43:08.405Z,0
2017-03-08T02:44:18.713Z,0
2017-03-08T02:45:29.415Z,0
2017-03-08T02:46:40.154Z,0
2017-03-08T02:47:50.872Z,0
2017-03-08T02:49:01.590Z,0
2017-03-08T02:50:11.886Z,0
2017-03-08T02:51:22.205Z,0
2017-03-08T02:52:32.500Z,0
2017-03-08T02:53:43.208Z,0
2017-03-08T02:54:53.921Z,0
2017-03-08T02:56:21.648Z,0
2017-03-08T02:57:32.342Z,0
2017-03-08T02:58:43.027Z,0
2017-03-08T02:59:52.932Z,0
2017-03-08T03:01:03.657Z,0
2017-03-08T03:02:14.075Z,0
2017-03-08T03:03:24.782Z,0
2017-03-08T03:04:35.469Z,0
2017-03-08T03:05:46.170Z,0
2017-03-08T03:06:56.867Z,0
2017-03-08T03:08:10.025Z,0
2017-03-08T03:09:20.727Z,0
2017-03-08T03:10:31.421Z,0
2017-03-08T03:11:42.134Z,0
2017-03-08T03:12:52.442Z,0
2017-03-08T03:14:03.492Z,0
2017-03-08T03:15:14.212Z,0
2017-03-08T03:16:24.518Z,0
2017-03-08T03:17:34.839Z,0
2017-03-08T03:18:45.574Z,0
2017-03-08T03:19:55.976Z,0
2017-03-08T03:21:06.295Z,0
2017-03-08T03:22:16.600Z,0
2017-03-08T03:23:27.323Z,0
2017-03-08T03:24:38.026Z,0
2017-03-08T03:25:51.651Z,0
2017-03-08T03:27:01.943Z,0
2017-03-08T03:28:12.664Z,0
2017-03-08T03:29:22.983Z,0
2017-03-08T03:30:33.682Z,0
2017-03-08T03:31:44.486Z,0
2017-03-08T03:32:54.789Z,0
2017-03-08T03:34:05.108Z,0
2017-03-08T03:35:15.819Z,0
2017-03-08T03:36:26.541Z,0
2017-03-08T03:37:37.551Z,0
2017-03-08T03:38:48.254Z,0
2017-03-08T03:39:58.963Z,0
2017-03-08T03:41:09.664Z,0
2017-03-08T03:42:20.366Z,0
2017-03-08T03:43:31.162Z,0
2017-03-08T03:44:41.865Z,0
2017-03-08T03:45:52.565Z,0
2017-03-08T03:47:02.874Z,0
2017-03-08T03:48:13.565Z,0
2017-03-08T03:49:24.297Z,0
2017-03-08T03:50:34.993Z,0
2017-03-08T03:51:45.712Z,0
2017-03-08T03:52:56.430Z,0
2017-03-08T03:54:07.124Z,0
2017-03-08T03:55:17.813Z,0
2017-03-08T03:56:27.747Z,0
2017-03-08T03:57:38.451Z,0
2017-03-08T03:58:49.149Z,0
2017-03-08T03:59:59.859Z,0
2017-03-08T04:01:10.567Z,0
2017-03-08T04:02:21.280Z,0
2017-03-08T04:03:31.996Z,0
2017-03-08T04:04:42.693Z,0
2017-03-08T04:05:53.023Z,0
2017-03-08T04:07:03.721Z,0
2017-03-08T04:08:13.615Z,0
2017-03-08T04:09:24.337Z,0
2017-03-08T04:10:35.035Z,0
2017-03-08T04:11:45.347Z,0
2017-03-08T04:12:55.648Z,0
2017-03-08T04:14:06.336Z,0
2017-03-08T04:15:17.025Z,0
2017-03-08T04:16:27.331Z,0
2017-03-08T04:17:38.050Z,0
2017-03-08T04:18:48.741Z,0
2017-03-08T04:19:59.429Z,0
2017-03-08T04:21:09.753Z,0
2017-03-08T04:22:20.457Z,0
2017-03-08T04:23:31.161Z,0
2017-03-08T04:24:41.474Z,0
2017-03-08T04:25:52.196Z,0
2017-03-08T04:27:02.905Z,0
2017-03-08T04:28:13.604Z,0
2017-03-08T04:29:23.954Z,0
2017-03-08T04:30:34.650Z,0
2017-03-08T04:31:45.349Z,0
2017-03-08T04:32:56.038Z,0
2017-03-08T04:34:06.751Z,0
2017-03-08T04:35:17.446Z,0
2017-03-08T04:36:28.141Z,0
2017-03-08T04:37:38.462Z,0
2017-03-08T04:38:49.171Z,0
2017-03-08T04:39:59.897Z,0
2017-03-08T04:41:10.604Z,0
2017-03-08T04:42:21.301Z,0
2017-03-08T04:43:32.017Z,0
2017-03-08T04:44:42.729Z,0
2017-03-08T04:45:53.050Z,0
2017-03-08T04:47:03.758Z,0
2017-03-08T04:48:14.067Z,0
2017-03-08T04:49:24.365Z,0
2017-03-08T04:50:35.058Z,0
2017-03-08T04:51:45.768Z,0
2017-03-08T04:52:56.460Z,0
2017-03-08T04:54:07.168Z,0
2017-03-08T04:55:17.883Z,0
2017-03-08T04:56:27.814Z,0
2017-03-08T04:57:38.542Z,0
2017-03-08T04:58:49.235Z,0
2017-03-08T04:59:59.946Z,0
2017-03-08T05:01:10.248Z,0
2017-03-08T05:02:20.944Z,0
2017-03-08T05:03:31.649Z,0
2017-03-08T05:04:41.960Z,0
2017-03-08T05:05:52.651Z,0
2017-03-08T05:07:03.352Z,0
2017-03-08T05:08:13.656Z,0
2017-03-08T05:09:23.966Z,0
2017-03-08T05:10:34.694Z,0
2017-03-08T05:11:45.016Z,0
2017-03-08T05:12:55.735Z,0
2017-03-08T05:14:06.445Z,0
2017-03-08T05:15:17.146Z,0
2017-03-08T05:16:27.874Z,0
2017-03-08T05:17:38.181Z,0
2017-03-08T05:18:48.880Z,0
2017-03-08T05:19:59.604Z,0
2017-03-08T05:21:10.330Z,0
2017-03-08T05:22:21.022Z,0
2017-03-08T05:23:31.732Z,0
2017-03-08T05:24:42.435Z,0
2017-03-08T05:25:53.148Z,0
2017-03-08T05:27:03.866Z,0
2017-03-08T05:28:14.575Z,0
2017-03-08T05:29:25.297Z,0
2017-03-08T05:30:35.999Z,0
2017-03-08T05:31:46.704Z,0
2017-03-08T05:32:57.414Z,0
2017-03-08T05:34:08.112Z,0
2017-03-08T05:35:18.419Z,0
2017-03-08T05:36:29.129Z,0
2017-03-08T05:37:39.835Z,0
2017-03-08T05:38:50.541Z,0
2017-03-08T05:40:01.235Z,0
2017-03-08T05:41:11.945Z,0
2017-03-08T05:42:22.252Z,0
2017-03-08T05:43:32.950Z,0
2017-03-08T05:44:43.643Z,0
2017-03-08T05:45:54.341Z,0
2017-03-08T05:47:05.043Z,5
2017-03-08T05:48:15.747Z,5
2017-03-08T05:49:26.066Z,5
2017-03-08T05:50:36.789Z,5
2017-03-08T05:51:47.498Z,5
2017-03-08T05:52:58.182Z,5
2017-03-08T05:54:08.503Z,5
2017-03-08T05:55:19.221Z,5
2017-03-08T05:56:29.921Z,10
2017-03-08T05:57:40.625Z,10
2017-03-08T05:58:51.307Z,10
2017-03-08T06:00:02.014Z,10
2017-03-08T06:01:12.327Z,10
2017-03-08T06:02:23.053Z,15
2017-03-08T06:03:33.754Z,15
2017-03-08T06:04:44.448Z,15
2017-03-08T06:05:55.163Z,15
2017-03-08T06:07:05.854Z,15
2017-03-08T06:08:16.550Z,20
2017-03-08T06:09:27.243Z,20
2017-03-08T06:10:37.554Z,20
2017-03-08T06:11:48.272Z,20
2017-03-08T06:12:58.971Z,25
2017-03-08T06:14:09.686Z,25
2017-03-08T06:15:20.395Z,25
2017-03-08T06:16:31.114Z,30
2017-03-08T06:17:41.808Z,30
2017-03-08T06:18:52.111Z,30
2017-03-08T06:20:02.822Z,30
2017-03-08T06:21:13.535Z,35
2017-03-08T06:22:24.250Z,35
2017-03-08T06:23:34.935Z,35
2017-03-08T06:24:45.635Z,40
2017-03-08T06:25:56.336Z,40
2017-03-08T06:27:06.238Z,40
2017-03-08T06:28:16.941Z,45
2017-03-08T06:29:27.652Z,45
2017-03-08T06:30:37.974Z,50
2017-03-08T06:31:48.684Z,50
2017-03-08T06:32:59.393Z,55
2017-03-08T06:34:10.102Z,55
2017-03-08T06:35:20.795Z,60
2017-03-08T06:36:31.521Z,60
2017-03-08T06:37:42.240Z,65
2017-03-08T06:38:52.961Z,65
2017-03-08T06:40:03.664Z,70
2017-03-08T06:41:14.362Z,70
2017-03-08T06:42:24.685Z,75
2017-03-08T06:43:35.404Z,75
2017-03-08T06:44:46.147Z,80
2017-03-08T06:45:56.849Z,80
2017-03-08T06:47:07.567Z,80
2017-03-08T06:48:18.265Z,80
2017-03-08T06:49:28.163Z,85
2017-03-08T06:50:38.859Z,85
2017-03-08T06:51:49.197Z,85
2017-03-08T06:52:59.539Z,90
2017-03-08T06:54:10.253Z,95
2017-03-08T06:55:20.977Z,95
2017-03-08T06:56:31.277Z,95
2017-03-08T06:57:41.988Z,100
2017-03-08T06:58:52.687Z,100
2017-03-08T07:00:03.030Z,100
2017-03-08T07:01:13.345Z,105
2017-03-08T07:02:24.044Z,105
2017-03-08T07:03:34.335Z,110
2017-03-08T07:04:44.636Z,110
2017-03-08T07:05:55.376Z,115
2017-03-08T07:07:06.086Z,120
2017-03-08T07:08:16.788Z,120
2017-03-08T07:09:27.485Z,120
2017-03-08T07:10:38.180Z,125
2017-03-08T07:11:48.479Z,125
2017-03-08T07:12:59.179Z,130
2017-03-08T07:14:09.884Z,130
2017-03-08T07:15:20.611Z,130
2017-03-08T07:16:31.331Z,135
2017-03-08T07:17:42.040Z,140
2017-03-08T07:18:52.345Z,140
2017-03-08T07:20:03.055Z,145
2017-03-08T07:21:13.762Z,145
2017-03-08T07:22:24.078Z,145
2017-03-08T07:23:34.366Z,145
2017-03-08T07:24:44.661Z,150
2017-03-08T07:25:54.964Z,150
2017-03-08T07:27:05.659Z,150
2017-03-08T07:28:15.991Z,155
2017-03-08T07:29:26.305Z,160
2017-03-08T07:30:36.988Z,160
2017-03-08T07:31:47.296Z,165
2017-03-08T07:32:57.598Z,165
2017-03-08T07:34:08.305Z,170
2017-03-08T07:35:19.018Z,170
2017-03-08T07:36:29.717Z,175
2017-03-08T07:37:40.418Z,180
2017-03-08T07:38:51.134Z,180
2017-03-08T07:40:01.835Z,185
2017-03-08T07:41:12.554Z,185
2017-03-08T07:42:22.473Z,190
2017-03-08T07:43:33.228Z,195
2017-03-08T07:44:43.992Z,195
2017-03-08T07:45:54.290Z,200
2017-03-08T07:47:05.021Z,205
2017-03-08T07:48:15.724Z,205
2017-03-08T07:49:25.654Z,210
2017-03-08T07:50:36.357Z,215
2017-03-08T07:51:47.055Z,215
2017-03-08T07:52:57.386Z,215
2017-03-08T07:54:08.085Z,220
2017-03-08T07:55:18.791Z,230
2017-03-08T07:56:28.701Z,230
2017-03-08T07:57:39.417Z,235
2017-03-08T07:58:50.164Z,235
2017-03-08T08:00:00.854Z,245
2017-03-08T08:01:11.148Z,245
2017-03-08T08:02:21.452Z,250
2017-03-08T08:03:32.149Z,255
2017-03-08T08:04:42.450Z,260
2017-03-08T08:05:53.163Z,265
2017-03-08T08:07:03.077Z,265
2017-03-08T08:08:13.792Z,270
2017-03-08T08:09:24.110Z,270
2017-03-08T08:10:34.403Z,270
2017-03-08T08:11:44.725Z,270
2017-03-08T08:12:55.438Z,270
2017-03-08T08:14:06.131Z,265
2017-03-08T08:15:16.834Z,265
2017-03-08T08:16:27.547Z,270
2017-03-08T08:17:37.883Z,275
2017-03-08T08:18:48.582Z,275
2017-03-08T08:19:59.283Z,280
2017-03-08T08:21:09.978Z,280
2017-03-08T08:22:20.692Z,280
2017-03-08T08:23:31.398Z,285
2017-03-08T08:24:42.106Z,285
2017-03-08T08:25:52.798Z,280
2017-03-08T08:27:03.505Z,275
2017-03-08T08:28:14.216Z,275
2017-03-08T08:29:24.129Z,275
2017-03-08T08:30:34.450Z,280
2017-03-08T08:31:45.183Z,280
2017-03-08T08:32:55.874Z,280
2017-03-08T08:34:06.618Z,280
2017-03-08T08:35:17.329Z,275
2017-03-08T08:36:27.622Z,265
2017-03-08T08:37:38.331Z,265
2017-03-08T08:38:49.057Z,265
2017-03-08T08:39:59.783Z,270
2017-03-08T08:41:10.485Z,275
2017-03-08T08:42:21.192Z,275
2017-03-08T08:43:31.496Z,270
2017-03-08T08:44:41.813Z,275
2017-03-08T08:45:52.116Z,275
2017-03-08T08:47:02.820Z,275
2017-03-08T08:48:13.529Z,275
2017-03-08T08:49:23.852Z,265
2017-03-08T08:50:34.562Z,250
2017-03-08T08:51:45.270Z,240
2017-03-08T08:52:55.962Z,230
2017-03-08T08:54:06.664Z,225
2017-03-08T08:55:17.363Z,220
2017-03-08T08:56:28.077Z,225
2017-03-08T08:57:38.382Z,255
2017-03-08T08:58:49.076Z,255
2017-03-08T08:59:59.770Z,285
2017-03-08T09:01:10.469Z,280
2017-03-08T09:02:20.802Z,285
2017-03-08T09:03:31.491Z,280
2017-03-08T09:04:42.204Z,280
2017-03-08T09:05:52.908Z,280
2017-03-08T09:07:03.612Z,285
2017-03-08T09:08:14.314Z,275
2017-03-08T09:09:25.008Z,285
2017-03-08T09:10:35.320Z,285
2017-03-08T09:11:46.037Z,285
2017-03-08T09:12:56.732Z,285
2017-03-08T09:14:07.027Z,290
2017-03-08T09:15:17.328Z,290
2017-03-08T09:16:27.627Z,290
2017-03-08T09:17:38.353Z,295
2017-03-08T09:18:49.065Z,295
2017-03-08T09:19:59.762Z,295
2017-03-08T09:21:10.060Z,300
2017-03-08T09:22:20.780Z,300
2017-03-08T09:23:31.490Z,300
2017-03-08T09:24:42.237Z,305
2017-03-08T09:25:52.947Z,305
2017-03-08T09:27:03.646Z,310
2017-03-08T09:28:14.361Z,305
2017-03-08T09:29:25.068Z,310
2017-03-08T09:30:35.777Z,310
2017-03-08T09:31:46.094Z,310
2017-03-08T09:32:56.388Z,310
2017-03-08T09:34:07.095Z,315
2017-03-08T09:35:17.804Z,315
2017-03-08T09:36:27.739Z,315
2017-03-08T09:37:38.031Z,320
2017-03-08T09:38:48.357Z,320
2017-03-08T09:39:58.657Z,320
2017-03-08T09:41:09.382Z,320
2017-03-08T09:42:20.114Z,325
2017-03-08T09:43:30.444Z,325
2017-03-08T09:44:41.170Z,325
2017-03-08T09:45:51.909Z,325
2017-03-08T09:47:02.622Z,325
2017-03-08T09:48:13.320Z,330
2017-03-08T09:49:24.026Z,330
2017-03-08T09:50:34.342Z,330
2017-03-08T09:51:44.679Z,335
2017-03-08T09:52:55.374Z,335
2017-03-08T09:54:06.100Z,335
2017-03-08T09:55:16.412Z,335
2017-03-08T09:56:26.727Z,340
2017-03-08T09:57:37.018Z,340
2017-03-08T09:58:47.325Z,340
2017-03-08T09:59:57.656Z,340
2017-03-08T10:01:08.353Z,340
2017-03-08T10:02:19.045Z,340
2017-03-08T10:03:29.759Z,340
2017-03-08T10:04:40.459Z,345
2017-03-08T10:05:50.854Z,345
2017-03-08T10:07:01.567Z,345
2017-03-08T10:08:12.265Z,350
2017-03-08T10:09:22.979Z,350
2017-03-08T10:10:33.301Z,350
2017-03-08T10:11:44.108Z,355
2017-03-08T10:12:54.829Z,355
2017-03-08T10:14:05.559Z,355
2017-03-08T10:15:16.275Z,360
2017-03-08T10:16:27.004Z,360
2017-03-08T10:17:37.705Z,360
2017-03-08T10:18:48.446Z,365
2017-03-08T10:19:59.156Z,365
2017-03-08T10:21:09.896Z,365
2017-03-08T10:22:20.615Z,370
2017-03-08T10:23:31.357Z,370
2017-03-08T10:24:42.091Z,370
2017-03-08T10:25:52.505Z,375
2017-03-08T10:27:02.933Z,375
2017-03-08T10:28:13.668Z,375
2017-03-08T10:29:24.424Z,375
2017-03-08T10:30:35.142Z,375
2017-03-08T10:31:44.683Z,380
2017-03-08T10:32:55.396Z,380
2017-03-08T10:34:06.117Z,380
2017-03-08T10:35:16.878Z,380
2017-03-08T10:36:27.225Z,380
2017-03-08T10:37:37.538Z,380
2017-03-08T10:38:48.287Z,385
2017-03-08T10:39:59.018Z,390
2017-03-08T10:41:09.822Z,385
2017-03-08T10:42:20.547Z,390
2017-03-08T10:43:31.243Z,390
2017-03-08T10:44:41.953Z,390
2017-03-08T10:45:52.649Z,390
2017-03-08T10:47:03.367Z,390
2017-03-08T10:48:14.099Z,390
2017-03-08T10:49:24.806Z,390
2017-03-08T10:50:35.500Z,395
2017-03-08T10:51:45.794Z,395
2017-03-08T10:52:56.507Z,400
2017-03-08T10:54:07.209Z,395
2017-03-08T10:55:17.934Z,400
2017-03-08T10:56:28.666Z,395
2017-03-08T10:57:39.364Z,395
2017-03-08T10:58:50.067Z,400
2017-03-08T11:00:00.380Z,400
2017-03-08T11:01:10.755Z,400
2017-03-08T11:02:21.471Z,400
2017-03-08T11:03:32.189Z,400
2017-03-08T11:04:42.908Z,405
2017-03-08T11:05:53.219Z,405
2017-03-08T11:07:03.944Z,405
2017-03-08T11:08:14.647Z,405
2017-03-08T11:09:25.347Z,435
2017-03-08T11:10:35.656Z,535
2017-03-08T11:11:46.361Z,600
2017-03-08T11:12:56.706Z,650
2017-03-08T11:14:07.411Z,725
2017-03-08T11:15:18.119Z,730
2017-03-08T11:16:28.425Z,720
2017-03-08T11:17:39.137Z,710
2017-03-08T11:18:49.880Z,695
2017-03-08T11:20:00.589Z,690
2017-03-08T11:21:11.302Z,690
2017-03-08T11:22:21.999Z,685
2017-03-08T11:23:32.732Z,685
2017-03-08T11:24:43.057Z,685
2017-03-08T11:25:53.772Z,690
2017-03-08T11:27:04.094Z,695
2017-03-08T11:28:14.028Z,695
2017-03-08T11:29:24.732Z,700
2017-03-08T11:30:35.053Z,705
2017-03-08T11:31:44.955Z,710
2017-03-08T11:32:55.676Z,780
2017-03-08T11:34:06.388Z,850
2017-03-08T11:35:17.144Z,820
2017-03-08T11:36:27.522Z,800
2017-03-08T11:37:37.883Z,790
2017-03-08T11:38:47.802Z,775
2017-03-08T11:39:58.514Z,770
2017-03-08T11:41:09.270Z,770
2017-03-08T11:42:19.980Z,775
2017-03-08T11:43:30.682Z,770
2017-03-08T11:44:41.029Z,775
2017-03-08T11:45:51.347Z,780
2017-03-08T11:47:02.072Z,790
2017-03-08T11:48:12.393Z,785
2017-03-08T11:49:23.104Z,780
2017-03-08T11:50:33.821Z,780
2017-03-08T11:51:44.538Z,790
2017-03-08T11:52:55.258Z,800
2017-03-08T11:54:05.597Z,810
2017-03-08T11:55:16.306Z,810
2017-03-08T11:56:27.028Z,815
2017-03-08T11:57:37.745Z,810
2017-03-08T11:58:48.459Z,810
2017-03-08T11:59:59.173Z,815
2017-03-08T12:01:09.914Z,820
2017-03-08T12:02:20.645Z,830
2017-03-08T12:03:31.404Z,820
2017-03-08T12:04:41.308Z,820
2017-03-08T12:05:52.025Z,825
2017-03-08T12:07:02.761Z,825
2017-03-08T12:08:13.496Z,835
2017-03-08T12:09:24.208Z,835
2017-03-08T12:10:34.938Z,840
2017-03-08T12:11:45.649Z,845
2017-03-08T12:12:55.990Z,845
2017-03-08T12:14:06.742Z,845
2017-03-08T12:15:17.465Z,855
2017-03-08T12:16:28.172Z,860
2017-03-08T12:17:38.901Z,860
2017-03-08T12:18:49.234Z,865
2017-03-08T12:19:59.945Z,870
2017-03-08T12:21:10.277Z,885
2017-03-08T12:22:21.060Z,885
2017-03-08T12:23:31.769Z,895
2017-03-08T12:24:42.484Z,900
2017-03-08T12:25:53.191Z,910
2017-03-08T12:27:03.916Z,920
2017-03-08T12:28:14.645Z,930
2017-03-08T12:29:25.388Z,940
2017-03-08T12:30:35.705Z,945
2017-03-08T12:31:46.447Z,960
2017-03-08T12:32:56.779Z,980
2017-03-08T12:34:07.482Z,1040
2017-03-08T12:35:18.222Z,1090
2017-03-08T12:36:28.936Z,1095
2017-03-08T12:37:39.682Z,1140
2017-03-08T12:38:49.996Z,1220
2017-03-08T12:40:00.724Z,1320
2017-03-08T12:41:11.449Z,1550
2017-03-08T12:42:22.184Z,2620
2017-03-08T12:43:32.915Z,3785
2017-03-08T12:44:43.224Z,2795
2017-03-08T12:45:53.544Z,2335
2017-03-08T12:47:04.268Z,2145
2017-03-08T12:48:14.591Z,1990
2017-03-08T12:49:25.305Z,1960
2017-03-08T12:50:36.039Z,2070
2017-03-08T12:51:46.356Z,2090
2017-03-08T12:52:56.676Z,2050
2017-03-08T12:54:07.401Z,2035
2017-03-08T12:55:18.150Z,2085
2017-03-08T12:56:28.865Z,2075
2017-03-08T12:57:39.190Z,2045
2017-03-08T12:58:49.123Z,2080
2017-03-08T12:59:59.463Z,2115
2017-03-08T13:01:10.202Z,2110
2017-03-08T13:02:20.929Z,2010
2017-03-08T13:03:31.673Z,1940
2017-03-08T13:04:42.399Z,1835
2017-03-08T13:05:52.744Z,1760
2017-03-08T13:07:03.060Z,1755
2017-03-08T13:08:13.796Z,1795
2017-03-08T13:09:24.534Z,1725
2017-03-08T13:10:35.263Z,1695
2017-03-08T13:11:45.581Z,1665
2017-03-08T13:12:55.907Z,1350
2017-03-08T13:14:06.641Z,1035
2017-03-08T13:15:17.366Z,975
2017-03-08T13:16:28.093Z,875
2017-03-08T13:17:38.801Z,930
2017-03-08T13:18:49.145Z,930
2017-03-08T13:19:59.878Z,875
2017-03-08T13:21:10.594Z,800
2017-03-08T13:22:21.315Z,805
2017-03-08T13:23:32.040Z,625
2017-03-08T13:24:42.769Z,560
2017-03-08T13:25:52.686Z,600
2017-03-08T13:27:03.416Z,585
2017-03-08T13:28:14.150Z,565
2017-03-08T13:29:24.456Z,605
2017-03-08T13:30:35.178Z,670
2017-03-08T13:31:45.900Z,595
2017-03-08T13:32:56.607Z,495
2017-03-08T13:34:06.952Z,480
2017-03-08T13:35:17.279Z,830
2017-03-08T13:36:27.596Z,755
2017-03-08T13:37:38.342Z,600
2017-03-08T13:38:49.051Z,675
2017-03-08T13:39:59.758Z,625
2017-03-08T13:41:10.071Z,655
2017-03-08T13:42:20.789Z,930
2017-03-08T13:43:31.507Z,1050
2017-03-08T13:44:41.834Z,945
2017-03-08T13:45:52.150Z,600
2017-03-08T13:47:02.853Z,715
2017-03-08T13:48:13.585Z,775
2017-03-08T13:49:24.285Z,675
2017-03-08T13:50:35.009Z,915
2017-03-08T13:51:45.725Z,1060
2017-03-08T13:52:56.435Z,1035
2017-03-08T13:54:06.845Z,1120
2017-03-08T13:55:17.176Z,1150
2017-03-08T13:56:27.892Z,1045
2017-03-08T13:57:38.603Z,895
2017-03-08T13:58:49.322Z,920
2017-03-08T14:00:00.031Z,785
2017-03-08T14:01:10.360Z,710
2017-03-08T14:02:21.055Z,550
2017-03-08T14:03:31.767Z,485
2017-03-08T14:04:42.468Z,745
2017-03-08T14:05:53.189Z,1095
2017-03-08T14:07:03.924Z,1100
2017-03-08T14:08:14.648Z,945
2017-03-08T14:09:25.369Z,905
2017-03-08T14:10:35.690Z,990
2017-03-08T14:11:46.394Z,1130
2017-03-08T14:12:57.110Z,1170
2017-03-08T14:14:07.448Z,595
2017-03-08T14:15:17.755Z,550
2017-03-08T14:16:28.491Z,945
2017-03-08T14:17:39.207Z,785
2017-03-08T14:18:49.504Z,785
2017-03-08T14:20:00.217Z,830
2017-03-08T14:21:10.935Z,920
2017-03-08T14:22:21.242Z,1080
2017-03-08T14:23:31.552Z,795
2017-03-08T14:24:41.880Z,530
2017-03-08T14:25:52.580Z,515
2017-03-08T14:27:03.309Z,640
2017-03-08T14:28:13.632Z,745
2017-03-08T14:29:24.353Z,975
2017-03-08T14:30:35.065Z,1120
2017-03-08T14:31:45.769Z,960
2017-03-08T14:32:56.490Z,670
2017-03-08T14:34:06.801Z,710
2017-03-08T14:35:17.521Z,610
2017-03-08T14:36:27.829Z,525
2017-03-08T14:37:38.546Z,520
2017-03-08T14:38:49.282Z,600
2017-03-08T14:40:00.009Z,880
2017-03-08T14:41:10.327Z,1125
2017-03-08T14:42:21.040Z,1015
2017-03-08T14:43:31.765Z,590
2017-03-08T14:44:42.062Z,605
2017-03-08T14:45:52.362Z,520
2017-03-08T14:47:03.071Z,480
2017-03-08T14:48:13.778Z,560
2017-03-08T14:49:24.482Z,795
2017-03-08T14:50:35.181Z,765
2017-03-08T14:51:44.707Z,660
2017-03-08T14:52:55.029Z,725
2017-03-08T14:54:05.736Z,590
2017-03-08T14:55:16.439Z,505
2017-03-08T14:56:26.763Z,530
2017-03-08T14:57:36.306Z,525
2017-03-08T14:58:47.010Z,475
2017-03-08T14:59:57.321Z,460
2017-03-08T15:01:07.641Z,390
2017-03-08T15:02:18.344Z,500
2017-03-08T15:03:29.067Z,540
2017-03-08T15:04:39.780Z,740
2017-03-08T15:05:50.515Z,840
2017-03-08T15:07:00.819Z,775
2017-03-08T15:08:11.560Z,680
2017-03-08T15:09:22.312Z,730
2017-03-08T15:10:33.022Z,475
2017-03-08T15:11:43.743Z,270
2017-03-08T15:12:54.048Z,260
2017-03-08T15:14:04.769Z,240
2017-03-08T15:15:15.493Z,225
2017-03-08T15:16:26.195Z,210
2017-03-08T15:17:36.515Z,205
2017-03-08T15:18:47.233Z,200
2017-03-08T15:19:57.165Z,200
2017-03-08T15:21:07.860Z,195
2017-03-08T15:22:18.185Z,190
2017-03-08T15:23:28.905Z,190
2017-03-08T15:24:39.638Z,190
2017-03-08T15:25:49.938Z,195
2017-03-08T15:27:00.647Z,210
2017-03-08T15:28:11.355Z,225
2017-03-08T15:29:22.069Z,245
2017-03-08T15:30:32.821Z,280
2017-03-08T15:31:43.516Z,325
2017-03-08T15:32:53.815Z,350
2017-03-08T15:34:04.529Z,380
2017-03-08T15:35:15.250Z,395
2017-03-08T15:36:25.955Z,380
2017-03-08T15:37:36.647Z,310
2017-03-08T15:38:47.343Z,290
2017-03-08T15:39:57.648Z,265
2017-03-08T15:41:08.355Z,255
2017-03-08T15:42:19.073Z,255
2017-03-08T15:43:29.764Z,275
2017-03-08T15:44:40.467Z,295
2017-03-08T15:45:49.992Z,245
2017-03-08T15:47:00.691Z,215
2017-03-08T15:48:11.392Z,205
2017-03-08T15:49:21.687Z,185
2017-03-08T15:50:32.013Z,180
2017-03-08T15:51:42.325Z,170
2017-03-08T15:52:52.235Z,160
2017-03-08T15:54:02.543Z,155
2017-03-08T15:55:12.864Z,155
2017-03-08T15:56:23.555Z,150
2017-03-08T15:57:34.260Z,145
2017-03-08T15:58:44.571Z,145
2017-03-08T15:59:54.864Z,145
2017-03-08T16:01:05.167Z,145
2017-03-08T16:02:15.510Z,145
2017-03-08T16:03:26.232Z,145
2017-03-08T16:04:36.933Z,145
2017-03-08T16:05:47.647Z,145
2017-03-08T16:06:58.348Z,140
2017-03-08T16:08:09.069Z,140
2017-03-08T16:09:19.379Z,135
2017-03-08T16:10:30.094Z,135
2017-03-08T16:11:40.821Z,135
2017-03-08T16:12:50.745Z,130
2017-03-08T16:14:01.108Z,125
2017-03-08T16:15:11.853Z,125
2017-03-08T16:16:22.181Z,120
2017-03-08T16:17:32.879Z,115
2017-03-08T16:18:43.183Z,110
2017-03-08T16:19:53.889Z,110
2017-03-08T16:21:04.585Z,105
2017-03-08T16:22:14.889Z,100
2017-03-08T16:23:25.215Z,95
2017-03-08T16:24:35.910Z,95
2017-03-08T16:25:46.612Z,90
2017-03-08T16:26:57.315Z,85
2017-03-08T16:28:08.032Z,80
2017-03-08T16:29:18.729Z,70
2017-03-08T16:30:29.060Z,65
2017-03-08T16:31:39.780Z,60
2017-03-08T16:32:50.094Z,55
2017-03-08T16:34:00.787Z,50
2017-03-08T16:35:11.110Z,50
2017-03-08T16:36:21.811Z,50
2017-03-08T16:37:32.108Z,45